Time;durP1;ratioP1;P1;durP2;ratioP2;P2;SDS_P1;SDS_P2;PMS_P1;PMS_P2;Temp;Humidity;BMP_temperature;BMP_pressure;BME280_temperature;BME280_humidity;BME280_pressure;Samples;Min_cycle;Max_cycle;Signal;HPM_P1;HPM_P2
2021/12/04 00:02:14;;;;;;;;;;;;;;;2.82;100.00;99875.09;5272596;28;20025;-71
2021/12/04 00:04:48;;;;;;;14.43;12.90;;;;;;;2.81;100.00;99865.66;5260601;28;19931;-72
2021/12/04 00:07:22;;;;;;;13.52;12.13;;;;;;;2.82;100.00;99868.25;5252870;28;20053;-73
2021/12/04 00:09:58;;;;;;;14.93;12.65;;;;;;;2.83;100.00;99864.81;5244175;28;20096;-72
2021/12/04 00:12:31;;;;;;;13.90;12.43;;;;;;;2.85;100.00;99851.94;5277780;28;20448;-72
2021/12/04 00:15:03;;;;;;;12.45;11.23;;;;;;;2.84;100.00;99839.94;5273872;28;20056;-73
2021/12/04 00:17:35;;;;;;;12.40;11.07;;;;;;;2.85;100.00;99832.22;5252338;28;20117;-75
2021/12/04 00:20:09;;;;;;;13.48;11.10;;;;;;;2.85;100.00;99824.50;5277736;28;20141;-74
2021/12/04 00:22:41;;;;;;;11.52;10.27;;;;;;;2.87;100.00;99825.38;5274530;28;20450;-72
2021/12/04 00:25:12;;;;;;;11.88;10.70;;;;;;;2.86;100.00;99821.06;5238919;28;20030;-75
2021/12/04 00:27:44;;;;;;;14.70;11.33;;;;;;;2.86;100.00;99822.78;5243337;28;20056;-72
2021/12/04 00:30:16;;;;;;;18.08;12.15;;;;;;;2.87;100.00;99821.94;5278350;28;20130;-74
2021/12/04 00:32:59;;;;;;;16.53;12.70;;;;;;;2.86;100.00;99827.94;5274248;28;20040;-74
2021/12/04 00:49:18;;;;;;;16.17;11.87;;;;;;;2.92;100.00;99812.50;5270882;28;20040;-75
2021/12/04 00:51:54;;;;;;;13.57;11.75;;;;;;;2.91;100.00;99801.38;5251045;28;20370;-72
2021/12/04 00:54:27;;;;;;;12.68;11.48;;;;;;;2.94;100.00;99799.66;5267369;28;20060;-74
2021/12/04 00:56:59;;;;;;;13.52;12.13;;;;;;;2.94;100.00;99799.66;5277566;28;20064;-74
2021/12/04 00:59:30;;;;;;;16.87;12.67;;;;;;;2.94;100.00;99804.78;5275670;28;20107;-71
2021/12/04 01:02:04;;;;;;;13.57;12.13;;;;;;;2.96;100.00;99800.50;5277676;28;20060;-72
2021/12/04 01:04:35;;;;;;;16.40;14.70;;;;;;;2.97;100.00;99794.50;5260714;28;20033;-75
2021/12/04 01:07:08;;;;;;;13.43;12.13;;;;;;;2.97;100.00;99799.66;5256859;28;20029;-74
2021/12/04 01:09:40;;;;;;;15.07;13.63;;;;;;;2.98;100.00;99806.50;5272354;28;20116;-73
2021/12/04 01:12:12;;;;;;;12.83;11.63;;;;;;;2.99;100.00;99808.22;5277375;28;20024;-75
2021/12/04 01:14:43;;;;;;;12.80;11.40;;;;;;;2.99;100.00;99809.09;5275616;28;20036;-73
2021/12/04 01:17:14;;;;;;;13.30;11.33;;;;;;;2.98;100.00;99812.53;5277624;28;20020;-77
2021/12/04 01:19:46;;;;;;;13.00;10.63;;;;;;;3.02;100.00;99810.81;5257114;28;20094;-74
2021/12/04 01:22:20;;;;;;;12.40;11.20;;;;;;;3.01;100.00;99812.53;5256429;28;20037;-74
2021/12/04 01:24:52;;;;;;;12.05;10.85;;;;;;;3.03;100.00;99809.97;5275810;28;20036;-73
2021/12/04 01:27:23;;;;;;;11.33;10.17;;;;;;;3.04;100.00;99809.09;5276874;28;20050;-73
2021/12/04 01:29:54;;;;;;;11.90;10.00;;;;;;;3.08;100.00;99803.97;5256926;28;20028;-74
2021/12/04 01:32:26;;;;;;;12.40;10.80;;;;;;;3.08;100.00;99795.38;5256215;28;20083;-72
2021/12/04 01:34:57;;;;;;;10.83;9.70;;;;;;;3.06;100.00;99794.53;5275191;28;20091;-70
2021/12/04 01:37:29;;;;;;;11.27;10.07;;;;;;;3.06;100.00;99790.22;5277138;28;20369;-73
2021/12/04 01:40:00;;;;;;;11.53;10.33;;;;;;;3.08;100.00;99790.22;5257913;28;20093;-73
2021/12/04 01:42:35;;;;;;;11.00;9.70;;;;;;;3.06;100.00;99787.66;5258114;28;20037;-72
2021/12/04 01:45:08;;;;;;;10.55;9.48;;;;;;;3.06;100.00;99789.38;5270837;28;20059;-73
2021/12/04 01:47:39;;;;;;;11.13;9.95;;;;;;;3.09;100.00;99797.97;5270944;28;20059;-77
2021/12/04 01:50:11;;;;;;;10.60;9.53;;;;;;;3.10;100.00;99788.50;5274787;28;20036;-72
2021/12/04 01:52:42;;;;;;;11.07;10.00;;;;;;;3.08;100.00;99788.50;5276670;28;20036;-74
2021/12/04 01:55:13;;;;;;;11.57;10.37;;;;;;;3.08;100.00;99787.66;5265886;28;20028;-75
2021/12/04 01:57:45;;;;;;;10.20;9.10;;;;;;;3.10;100.00;99783.38;5276097;28;20068;-73
2021/12/04 02:00:17;;;;;;;11.80;10.50;;;;;;;3.10;100.00;99785.94;5265565;28;20041;-70
2021/12/04 02:02:48;;;;;;;11.30;10.17;;;;;;;3.12;100.00;99784.22;5256213;28;20424;-72
2021/12/04 02:05:20;;;;;;;12.40;11.23;;;;;;;3.13;100.00;99790.25;5255631;28;20040;-73
2021/12/04 02:07:51;;;;;;;11.20;10.07;;;;;;;3.13;100.00;99780.78;5262045;28;20341;-71
2021/12/04 02:10:22;;;;;;;12.73;11.27;;;;;;;3.13;100.00;99779.94;5274569;28;20040;-75
2021/12/04 02:12:54;;;;;;;10.30;9.30;;;;;;;3.14;100.00;99772.22;5269468;28;20114;-73
2021/12/04 02:15:26;;;;;;;10.20;9.13;;;;;;;3.13;100.00;99765.34;5255152;28;20423;-73
2021/12/04 02:17:59;;;;;;;15.43;11.13;;;;;;;3.14;100.00;99751.63;5261599;28;20031;-73
2021/12/04 02:20:33;;;;;;;12.82;10.45;;;;;;;3.15;100.00;99740.44;5275726;28;20149;-73
2021/12/04 02:23:07;;;;;;;11.70;10.48;;;;;;;3.17;100.00;99737.88;5269106;28;20800;-72
2021/12/04 02:25:39;;;;;;;12.25;10.60;;;;;;;3.15;100.00;99732.72;5255341;28;20029;-73
2021/12/04 02:28:12;;;;;;;11.25;10.15;;;;;;;3.16;100.00;99737.03;5265457;28;20094;-73
2021/12/04 02:30:43;;;;;;;;;;;;;;;3.20;100.00;99731.00;5276172;28;20028;-73
2021/12/04 02:33:16;;;;;;;11.32;10.13;;;;;;;3.16;100.00;99724.16;5264921;28;19943;-73
2021/12/04 02:35:53;;;;;;;11.90;10.07;;;;;;;3.16;100.00;99713.84;5255260;28;20033;-71
2021/12/04 02:38:26;;;;;;;10.93;9.82;;;;;;;3.15;100.00;99708.69;5266766;28;20086;-73
2021/12/04 02:41:00;;;;;;;;;;;;;;;3.21;100.00;99714.69;5277249;28;20387;-72
2021/12/04 02:43:33;;;;;;;15.02;10.93;;;;;;;3.14;100.00;99707.84;5257999;28;19917;-73
2021/12/04 02:46:04;;;;;;;13.43;10.27;;;;;;;3.15;100.00;99706.97;5255199;28;20029;-72
2021/12/04 02:48:36;;;;;;;14.90;11.40;;;;;;;3.15;100.00;99699.25;5273102;28;20036;-73
2021/12/04 02:51:07;;;;;;;11.10;9.70;;;;;;;3.13;100.00;99698.41;5276002;28;20029;-72
2021/12/04 02:53:39;;;;;;;12.23;10.33;;;;;;;3.14;100.00;99701.81;5257461;28;20037;-73
2021/12/04 02:56:11;;;;;;;10.73;9.63;;;;;;;3.15;100.00;99703.53;5255098;28;20032;-72
2021/12/04 02:58:49;;;;;;;11.23;10.02;;;;;;;3.16;100.00;99703.53;5272462;28;20024;-72
2021/12/04 03:01:21;;;;;;;12.85;9.88;;;;;;;3.14;100.00;99707.84;5275290;28;20036;-72
2021/12/04 03:04:03;;;;;;;10.77;9.77;;;;;;;3.16;100.00;99706.13;5257722;28;20044;-74
2021/12/04 03:06:45;;;;;;;10.73;9.60;;;;;;;3.15;100.00;99706.97;5259408;28;20037;-74
2021/12/04 03:09:17;;;;;;;10.57;9.57;;;;;;;3.15;100.00;99698.41;5262332;28;20036;-79
2021/12/04 03:11:49;;;;;;;10.17;9.20;;;;;;;3.16;100.00;99695.81;5278309;28;20399;-74
2021/12/04 03:14:20;;;;;;;10.30;9.30;;;;;;;3.16;100.00;99690.66;5258742;28;20033;-72
2021/12/04 03:16:52;;;;;;;10.33;8.93;;;;;;;3.16;100.00;99693.25;5259959;28;20033;-73
2021/12/04 03:19:24;;;;;;;10.13;9.13;;;;;;;3.17;100.00;99679.53;5280051;28;20085;-72
2021/12/04 03:21:56;;;;;;;9.07;8.18;;;;;;;3.16;100.00;99682.09;5278450;28;20048;-74
2021/12/04 03:24:27;;;;;;;8.73;7.93;;;;;;;3.15;100.00;99688.94;5258856;28;20476;-72
2021/12/04 03:26:59;;;;;;;9.33;7.80;;;;;;;3.16;100.00;99677.78;5259515;28;20170;-73
2021/12/04 03:29:32;;;;;;;9.03;7.80;;;;;;;3.17;100.00;99684.69;5279788;28;20126;-71
2021/12/04 03:42:55;;;;;;;7.78;6.10;;;;;;;3.16;100.00;99664.91;5278981;28;20044;-80
2021/12/04 03:45:27;;;;;;;6.35;5.68;;;;;;;3.16;100.00;99662.34;5268097;28;20033;-73
2021/12/04 03:48:06;;;;;;;7.23;5.53;;;;;;;3.18;100.00;99662.34;5259042;28;20017;-74
2021/12/04 03:50:38;;;;;;;7.47;5.65;;;;;;;3.17;100.00;99656.34;5244072;28;20025;-73
2021/12/04 03:53:09;;;;;;;6.03;5.43;;;;;;;3.20;100.00;99653.75;5261150;28;20619;-72
2021/12/04 03:55:41;;;;;;;8.43;5.10;;;;;;;3.19;100.00;99649.47;5270227;28;20800;-73
2021/12/04 03:58:12;;;;;;;5.07;4.53;;;;;;;3.18;100.00;99646.91;5279177;28;20059;-72
2021/12/04 04:00:44;;;;;;;4.70;4.20;;;;;;;3.18;100.00;99644.31;5267948;28;20056;-71
2021/12/04 04:03:15;;;;;;;5.03;4.53;;;;;;;3.17;100.00;99656.34;5239999;28;20107;-72
2021/12/04 04:05:47;;;;;;;5.60;5.00;;;;;;;3.18;100.00;99652.03;5268032;28;20036;-73
2021/12/04 04:08:19;;;;;;;7.37;5.20;;;;;;;3.19;100.00;99654.63;5278806;28;20506;-71
2021/12/04 04:10:53;;;;;;;5.87;4.03;;;;;;;3.19;100.00;99649.47;5258863;28;20108;-75
2021/12/04 04:13:24;;;;;;;5.50;4.30;;;;;;;3.20;100.00;99645.16;5257531;28;20194;-70
2021/12/04 04:15:55;;;;;;;5.07;4.57;;;;;;;3.19;100.00;99641.75;5275709;28;20107;-74
2021/12/04 04:18:31;;;;;;;8.83;4.43;;;;;;;3.20;100.00;99640.88;5278708;28;20116;-73
2021/12/04 04:21:02;;;;;;;4.95;4.40;;;;;;;3.21;100.00;99636.59;5259116;28;20441;-71
2021/12/04 04:23:57;;;;;;;4.80;4.30;;;;;;;3.24;100.00;99631.44;5258498;28;20048;-74
2021/12/04 04:26:31;;;;;;;5.20;4.07;;;;;;;3.21;100.00;99629.72;5237485;28;20121;-75
2021/12/04 04:29:05;;;;;;;5.78;5.10;;;;;;;3.21;100.00;99626.28;5249673;28;20032;-73
2021/12/04 04:31:48;;;;;;;5.18;4.68;;;;;;;3.22;100.00;99631.44;5279161;28;20025;-74
2021/12/04 04:34:28;;;;;;;4.82;4.00;;;;;;;3.23;100.00;99627.13;5271047;28;20703;-74
2021/12/04 04:59:37;;;;;;;4.80;4.30;;;;;;;3.24;100.00;99621.97;5269070;28;20496;-72
2021/12/04 05:13:20;;;;;;;5.88;3.75;;;;;;;3.25;100.00;99613.41;5267528;28;20555;-72
2021/12/04 05:21:05;;;;;;;5.65;3.70;;;;;;;3.28;100.00;99589.34;5263030;28;20037;-72
2021/12/04 05:23:46;;;;;;;4.60;3.80;;;;;;;3.28;100.00;99582.50;5258095;28;20025;-74
2021/12/04 05:26:20;;;;;;;4.22;3.75;;;;;;;3.28;100.00;99590.22;5277096;28;20084;-75
2021/12/04 05:28:58;;;;;;;3.85;3.10;;;;;;;3.29;100.00;99586.78;5276261;28;20032;-74
2021/12/04 05:31:29;;;;;;;5.88;3.40;;;;;;;3.28;100.00;99594.50;5277122;28;20029;-77
2021/12/04 05:34:01;;;;;;;3.93;3.43;;;;;;;3.31;100.00;99597.06;5274798;28;20094;-71
2021/12/04 05:36:32;;;;;;;4.50;3.50;;;;;;;3.30;100.00;99592.81;5276880;28;20078;-72
2021/12/04 05:39:05;;;;;;;5.03;3.57;;;;;;;3.31;100.00;99597.06;5265702;28;20080;-73
2021/12/04 05:41:37;;;;;;;4.30;3.60;;;;;;;3.30;100.00;99592.81;5256304;28;20025;-72
2021/12/04 05:44:10;;;;;;;4.50;3.30;;;;;;;3.33;100.00;99591.91;5266225;28;20050;-74
2021/12/04 05:46:53;;;;;;;5.10;4.03;;;;;;;3.33;100.00;99594.50;5276723;28;20090;-73
2021/12/04 05:49:38;;;;;;;4.82;3.92;;;;;;;3.32;100.00;99591.06;5264382;28;20033;-74
2021/12/04 05:57:27;;;;;;;5.57;4.18;;;;;;;3.34;100.00;99583.34;5276606;28;20033;-71
2021/12/04 05:59:59;;;;;;;4.50;3.93;;;;;;;3.35;100.00;99580.75;5260086;28;20045;-76
2021/12/04 06:02:30;;;;;;;5.27;3.90;;;;;;;3.35;100.00;99580.75;5255650;28;20060;-75
2021/12/04 06:05:02;;;;;;;5.80;3.70;;;;;;;3.36;100.00;99589.34;5271357;28;20028;-72
2021/12/04 06:07:33;;;;;;;5.28;3.95;;;;;;;3.35;100.00;99583.34;5279161;28;20484;-75
2021/12/04 06:10:06;;;;;;;5.03;4.20;;;;;;;3.36;100.00;99576.47;5261625;28;20035;-71
2021/12/04 06:12:37;;;;;;;4.40;3.72;;;;;;;3.36;100.00;99576.47;5255478;28;20071;-73
2021/12/04 06:15:09;;;;;;;5.00;3.83;;;;;;;3.36;100.00;99568.72;5271147;28;20028;-76
2021/12/04 06:17:40;;;;;;;4.50;3.43;;;;;;;3.38;100.00;99569.56;5276803;28;20137;-73
2021/12/04 06:23:02;;;;;;;4.78;3.95;;;;;;;3.40;100.00;99573.03;5255961;28;20155;-73
2021/12/04 06:25:34;;;;;;;5.45;3.95;;;;;;;3.39;100.00;99568.72;5245896;28;20021;-75
2021/12/04 06:28:06;;;;;;;4.63;3.83;;;;;;;3.40;100.00;99568.72;5253109;28;20029;-77
2021/12/04 06:30:39;;;;;;;6.50;3.80;;;;;;;3.42;100.00;99563.56;5270260;28;20025;-81
2021/12/04 06:33:13;;;;;;;4.63;3.72;;;;;;;3.40;100.00;99571.28;5257351;28;20135;-76
2021/12/04 06:35:46;;;;;;;5.30;3.95;;;;;;;3.40;100.00;99570.44;5274051;28;20666;-74
2021/12/04 06:38:18;;;;;;;4.85;4.13;;;;;;;3.41;100.00;99574.72;5250170;28;20475;-76
2021/12/04 06:40:50;;;;;;;5.03;4.00;;;;;;;3.43;100.00;99580.72;5254269;28;20138;-74
2021/12/04 06:43:22;;;;;;;4.50;3.80;;;;;;;3.43;100.00;99579.00;5259460;28;20043;-76
2021/12/04 06:46:01;;;;;;;4.73;4.10;;;;;;;3.44;100.00;99585.00;5275929;28;20020;-79
2021/12/04 06:48:41;;;;;;;5.68;4.22;;;;;;;3.44;100.00;99578.13;5268203;28;20016;-73
2021/12/04 06:51:29;;;;;;;4.93;4.10;;;;;;;3.46;100.00;99578.13;5235343;28;20129;-78
2021/12/04 06:56:37;;;;;;;8.10;4.80;;;;;;;3.46;100.00;99580.72;5272875;28;20040;-76
2021/12/04 06:59:13;;;;;;;7.22;4.97;;;;;;;3.47;100.00;99590.16;5236593;28;20084;-79
2021/12/04 07:01:44;;;;;;;5.80;4.38;;;;;;;3.47;100.00;99585.00;5234729;28;20079;-72
2021/12/04 07:04:18;;;;;;;10.13;5.87;;;;;;;3.50;100.00;99584.16;5270698;28;20037;-77
2021/12/04 07:06:50;;;;;;;5.70;4.95;;;;;;;3.48;100.00;99584.16;5273297;28;20113;-76
2021/12/04 07:09:21;;;;;;;6.40;5.00;;;;;;;3.46;100.00;99584.16;5274166;28;20050;-74
2021/12/04 07:11:53;;;;;;;6.57;5.07;;;;;;;3.51;100.00;99585.84;5246572;28;20082;-78
2021/12/04 07:14:24;;;;;;;8.10;5.00;;;;;;;3.50;100.00;99581.56;5252488;28;20068;-76
2021/12/04 07:16:59;;;;;;;6.87;5.40;;;;;;;3.52;100.00;99588.41;5260037;28;20025;-76
2021/12/04 07:19:32;;;;;;;5.93;5.00;;;;;;;3.51;100.00;99579.00;5264974;28;20025;-74
2021/12/04 07:22:04;;;;;;;6.82;5.05;;;;;;;3.53;100.00;99577.25;5253897;28;20032;-78
2021/12/04 07:24:35;;;;;;;8.32;5.00;;;;;;;3.54;100.00;99583.25;5258165;28;20032;-71
2021/12/04 07:27:06;;;;;;;6.13;5.17;;;;;;;3.53;100.00;99577.25;5273439;28;20029;-72
2021/12/04 07:29:38;;;;;;;6.40;5.50;;;;;;;3.52;100.00;99575.53;5271797;28;20033;-73
2021/12/04 07:32:09;;;;;;;7.80;5.37;;;;;;;3.54;100.00;99572.97;5273515;28;20051;-73
2021/12/04 07:34:41;;;;;;;6.00;5.33;;;;;;;3.55;100.00;99567.81;5267262;28;20404;-79
2021/12/04 07:37:12;;;;;;;9.13;4.53;;;;;;;3.55;100.00;99572.94;5252506;28;20029;-75
2021/12/04 07:39:44;;;;;;;5.10;4.53;;;;;;;3.57;100.00;99581.53;5257639;28;20090;-79
2021/12/04 07:42:15;;;;;;;7.17;4.53;;;;;;;3.58;100.00;99577.25;5272954;28;20055;-79
2021/12/04 07:44:47;;;;;;;5.83;4.77;;;;;;;3.58;100.00;99564.38;5267238;28;20583;-72
2021/12/04 07:47:18;;;;;;;6.07;4.87;;;;;;;3.59;100.00;99564.34;5252338;28;20028;-73
2021/12/04 07:49:50;;;;;;;5.20;4.43;;;;;;;3.60;100.00;99567.78;5259222;28;20032;-73
2021/12/04 07:52:21;;;;;;;5.97;4.80;;;;;;;3.63;100.00;99565.19;5276433;28;20040;-73
2021/12/04 07:54:53;;;;;;;6.70;4.73;;;;;;;3.62;100.00;99566.94;5276974;28;20735;-72
2021/12/04 07:57:25;;;;;;;8.47;5.10;;;;;;;3.63;100.00;99570.34;5279019;28;20598;-81
2021/12/04 07:59:57;;;;;;;5.63;4.63;;;;;;;3.65;100.00;99560.88;5275245;28;20156;-74
2021/12/04 08:02:28;;;;;;;6.73;5.00;;;;;;;3.66;100.00;99557.47;5254620;28;20029;-77
2021/12/04 08:05:00;;;;;;;6.23;4.83;;;;;;;3.67;100.00;99550.56;5266476;28;20032;-78
2021/12/04 08:07:31;;;;;;;8.37;5.03;;;;;;;3.70;100.00;99553.97;5275314;28;20235;-74
2021/12/04 08:10:03;;;;;;;7.30;5.33;;;;;;;3.73;100.00;99555.72;5264324;28;20107;-78
2021/12/04 08:12:36;;;;;;;6.07;4.90;;;;;;;3.75;100.00;99551.38;5254416;28;20477;-75
2021/12/04 08:15:09;;;;;;;6.78;5.10;;;;;;;3.76;100.00;99553.97;5272891;28;20028;-72
2021/12/04 08:17:43;;;;;;;6.60;4.75;;;;;;;3.80;100.00;99539.31;5281935;28;20129;-73
2021/12/04 08:20:15;;;;;;;5.45;4.85;;;;;;;3.81;100.00;99534.16;5269855;28;20112;-73
2021/12/04 08:22:47;;;;;;;;;;;;;;;3.91;100.00;99526.38;5257916;28;20404;-76
2021/12/04 08:25:19;;;;;;;6.32;5.35;;;;;;;3.86;100.00;99525.56;5273104;28;19928;-84
2021/12/04 08:27:51;;;;;;;5.60;4.65;;;;;;;3.86;100.00;99526.41;5277533;28;20661;-74
2021/12/04 08:30:26;;;;;;;6.00;4.72;;;;;;;3.87;100.00;99525.56;5258599;28;20107;-73
2021/12/04 08:32:58;;;;;;;6.05;5.18;;;;;;;3.87;100.00;99522.13;5254856;28;20071;-72
2021/12/04 08:35:34;;;;;;;5.90;4.97;;;;;;;3.89;100.00;99512.66;5274968;28;20060;-73
2021/12/04 08:38:11;;;;;;;6.30;5.30;;;;;;;3.90;100.00;99517.81;5275367;28;20032;-74
2021/12/04 08:40:43;;;;;;;5.40;4.57;;;;;;;3.91;100.00;99508.34;5233565;28;20061;-81
2021/12/04 08:43:15;;;;;;;7.78;5.00;;;;;;;3.91;100.00;99503.19;5234436;28;20108;-80
2021/12/04 08:45:47;;;;;;;6.15;4.85;;;;;;;3.93;100.00;99498.88;5274204;28;20036;-80
2021/12/04 08:48:19;;;;;;;6.88;5.00;;;;;;;3.92;100.00;99497.19;5273934;28;20029;-77
2021/12/04 08:50:50;;;;;;;6.13;4.70;;;;;;;3.94;100.00;99498.84;5253676;28;20563;-74
2021/12/04 08:53:21;;;;;;;5.80;4.57;;;;;;;3.96;100.00;99497.16;5254332;28;20029;-77
2021/12/04 08:55:53;;;;;;;6.90;5.30;;;;;;;3.99;100.00;99493.69;5254055;28;20115;-77
2021/12/04 08:58:25;;;;;;;6.67;5.50;;;;;;;4.04;100.00;99488.50;5265531;28;20024;-73
2021/12/04 09:01:01;;;;;;;6.23;4.60;;;;;;;4.14;100.00;99474.69;5262790;28;20674;-80
2021/12/04 09:03:37;;;;;;;8.02;4.90;;;;;;;4.20;100.00;99488.38;5240758;28;20037;-75
2021/12/04 09:06:09;;;;;;;8.40;5.47;;;;;;;4.21;100.00;99494.38;5264693;28;20456;-74
2021/12/04 09:08:40;;;;;;;6.53;5.47;;;;;;;4.24;99.57;99493.53;5261965;28;20098;-77
2021/12/04 09:11:17;;;;;;;7.03;5.30;;;;;;;4.30;99.52;99498.59;5254437;28;20040;-75
2021/12/04 09:13:49;;;;;;;7.13;5.35;;;;;;;4.34;99.19;99498.56;5266621;28;20476;-78
2021/12/04 09:16:21;;;;;;;6.17;5.27;;;;;;;4.36;98.71;99496.84;5274032;28;20032;-79
2021/12/04 09:18:55;;;;;;;7.05;6.35;;;;;;;4.36;98.18;99486.53;5261163;28;20021;-79
2021/12/04 09:21:28;;;;;;;6.47;5.30;;;;;;;4.40;98.31;99481.34;5254375;28;20040;-79
2021/12/04 09:35:17;;;;;;;7.00;5.20;;;;;;;4.52;98.18;99470.91;5234830;28;20141;-76
2021/12/04 10:00:48;;;;;;;6.22;4.75;;;;;;;4.37;97.44;99443.53;5206603;28;20046;-72
2021/12/04 10:17:47;;;;;;;7.82;5.75;;;;;;;4.28;98.89;99448.75;5210691;28;20045;-79
2021/12/04 10:20:48;;;;;;;8.90;6.55;;;;;;;4.28;98.97;99438.44;5210607;28;20120;-75
2021/12/04 10:33:57;;;;;;;8.65;6.03;;;;;;;4.35;99.41;99416.91;5187227;28;20046;-73
2021/12/04 10:36:35;;;;;;;8.63;6.60;;;;;;;4.40;99.24;99407.38;5189434;28;20454;-75
2021/12/04 10:39:10;;;;;;;8.98;6.78;;;;;;;4.44;99.16;99396.13;5207505;28;20066;-72
2021/12/04 10:41:44;;;;;;;8.82;6.57;;;;;;;4.48;98.63;99400.41;5208056;28;20120;-73
2021/12/04 10:44:21;;;;;;;8.18;6.55;;;;;;;4.56;98.65;99402.91;5209219;28;20049;-79
2021/12/04 10:46:54;;;;;;;8.13;6.72;;;;;;;4.64;98.58;99393.38;5208852;28;20025;-76
2021/12/04 10:52:29;;;;;;;11.02;5.82;;;;;;;4.68;97.76;99384.69;5227650;28;20037;-74
2021/12/04 10:55:13;;;;;;;8.88;6.50;;;;;;;4.67;97.63;99387.28;5242147;28;20040;-76
2021/12/04 11:03:23;;;;;;;7.90;6.32;;;;;;;4.77;98.19;99364.84;5252365;28;20414;-74
2021/12/04 11:38:28;;;;;;;6.35;5.35;;;;;;;5.21;95.24;99327.22;5150660;28;20074;-76
2021/12/04 11:41:25;;;;;;;7.20;5.43;;;;;;;5.19;95.04;99319.50;5151247;28;20054;-82
2021/12/04 11:49:16;;;;;;;8.00;5.40;;;;;;;5.15;95.51;99312.66;5158654;28;20085;-76
2021/12/04 11:51:52;;;;;;;8.85;5.72;;;;;;;5.09;95.18;99308.44;5172031;28;20047;-74
2021/12/04 11:54:28;;;;;;;7.30;5.28;;;;;;;5.04;95.32;99299.91;5169535;28;20046;-77
2021/12/04 11:57:06;;;;;;;6.97;5.53;;;;;;;5.03;95.33;99302.53;5171085;28;20145;-79
2021/12/04 11:59:40;;;;;;;6.35;5.68;;;;;;;5.00;95.42;99298.25;5169847;28;20804;-78
2021/12/04 12:02:24;;;;;;;9.63;6.05;;;;;;;5.01;95.82;99304.28;5169771;28;20498;-73
2021/12/04 12:04:56;;;;;;;7.00;6.13;;;;;;;4.96;95.66;99295.72;5170086;28;20556;-73
2021/12/04 12:07:30;;;;;;;6.97;5.47;;;;;;;4.95;96.04;99289.72;5170652;28;20035;-81
2021/12/04 12:10:09;;;;;;;7.07;6.05;;;;;;;4.93;96.35;99292.31;5171487;28;20516;-72
2021/12/04 12:12:42;;;;;;;7.93;5.97;;;;;;;4.93;96.83;99287.16;5171800;28;20030;-75
2021/12/04 12:15:41;;;;;;;7.85;5.72;;;;;;;4.93;97.08;99291.47;5247077;28;20048;-78
2021/12/04 12:18:16;;;;;;;13.27;6.63;;;;;;;4.88;97.19;99296.69;5279052;28;20025;-73
2021/12/04 12:20:57;;;;;;;8.57;6.78;;;;;;;4.82;97.63;99294.19;5260065;28;20021;-81
2021/12/04 12:23:32;;;;;;;9.63;6.03;;;;;;;4.80;98.02;99289.91;5258613;28;20036;-76
2021/12/04 12:26:12;;;;;;;7.43;6.43;;;;;;;4.81;98.45;99276.13;5239051;28;20029;-76
2021/12/04 12:37:21;;;;;;;9.23;7.22;;;;;;;4.76;99.74;99289.09;5262553;28;20040;-74
2021/12/04 12:40:08;;;;;;;8.85;6.57;;;;;;;4.73;100.00;99295.19;5276638;28;20329;-79
2021/12/04 12:42:41;;;;;;;7.75;6.93;;;;;;;4.64;100.00;99295.28;5276105;28;20063;-77
2021/12/04 12:45:13;;;;;;;;;;;;;;;4.62;100.00;99297.03;5276198;28;20040;-73
2021/12/04 12:47:52;;;;;;;11.90;8.05;;;;;;;4.55;100.00;99301.41;5248121;28;20451;-70
2021/12/04 12:50:29;;;;;;;15.27;9.77;;;;;;;4.52;100.00;99301.47;5234466;28;20029;-76
2021/12/04 12:53:08;;;;;;;14.98;11.68;;;;;;;4.47;100.00;99300.63;5270346;28;20080;-72
2021/12/04 12:55:41;;;;;;;12.88;10.77;;;;;;;4.45;100.00;99293.81;5280021;28;20032;-82
2021/12/04 12:58:16;;;;;;;16.55;12.02;;;;;;;4.41;100.00;99286.97;5264712;28;20043;-76
2021/12/04 13:12:51;;;;;;;21.63;18.05;;;;;;;4.46;100.00;99270.56;5259072;28;20045;-73
2021/12/04 13:15:36;;;;;;;21.13;18.65;;;;;;;4.45;100.00;99268.00;5254536;28;20817;-80
2021/12/04 13:18:20;;;;;;;20.13;16.98;;;;;;;4.46;100.00;99283.47;5258401;28;20042;-71
2021/12/04 13:20:53;;;;;;;20.98;18.08;;;;;;;4.47;100.00;99268.81;5253723;28;20029;-79
2021/12/04 13:23:26;;;;;;;19.15;17.15;;;;;;;4.46;100.00;99275.72;5255672;28;20033;-79
2021/12/04 13:26:02;;;;;;;23.33;19.40;;;;;;;4.47;100.00;99276.56;5253984;28;20036;-83
2021/12/04 13:28:37;;;;;;;22.10;18.42;;;;;;;4.47;100.00;99272.25;5244593;28;20044;-78
2021/12/04 13:31:08;;;;;;;18.58;16.55;;;;;;;4.45;100.00;99268.00;5257969;28;20029;-81
2021/12/04 13:33:45;;;;;;;20.93;17.90;;;;;;;4.47;100.00;99258.50;5258738;28;20029;-76
2021/12/04 13:36:24;;;;;;;17.67;15.63;;;;;;;4.48;100.00;99271.38;5258748;28;20040;-75
2021/12/04 13:39:04;;;;;;;22.98;20.48;;;;;;;4.50;100.00;99261.06;5275526;28;20437;-71
2021/12/04 13:41:38;;;;;;;18.10;15.80;;;;;;;4.45;100.00;99263.69;5267534;28;20029;-74
2021/12/04 13:44:14;;;;;;;18.80;15.85;;;;;;;4.46;100.00;99269.69;5239468;28;20032;-79
2021/12/04 13:46:55;;;;;;;17.33;14.75;;;;;;;4.45;100.00;99268.84;5272043;28;20048;-80
2021/12/04 13:49:39;;;;;;;17.35;15.55;;;;;;;4.47;100.00;99263.66;5284458;28;20028;-80
2021/12/04 13:52:15;;;;;;;23.80;20.75;;;;;;;4.52;100.00;99270.50;5271901;28;20430;-76
2021/12/04 13:54:52;;;;;;;18.70;15.73;;;;;;;4.54;100.00;99279.06;5259050;28;20047;-74
2021/12/04 13:57:23;;;;;;;17.77;15.93;;;;;;;4.53;100.00;99271.34;5269888;28;20020;-74
2021/12/04 13:59:59;;;;;;;20.10;16.37;;;;;;;4.47;100.00;99264.50;5272352;28;20025;-74
2021/12/04 14:02:31;;;;;;;18.33;16.23;;;;;;;4.45;100.00;99262.84;5266455;28;20029;-82
2021/12/04 14:05:13;;;;;;;105.22;94.03;;;;;;;4.51;100.00;99262.78;5259619;28;20043;-72
2021/12/04 14:07:54;;;;;;;20.85;17.08;;;;;;;4.54;100.00;99266.16;5261950;28;20068;-73
2021/12/04 14:10:37;;;;;;;40.60;32.33;;;;;;;4.55;100.00;99265.25;5279093;28;20569;-72
2021/12/04 14:13:10;;;;;;;20.77;16.90;;;;;;;4.55;100.00;99264.41;5264167;28;20032;-75
2021/12/04 14:15:45;;;;;;;21.13;17.35;;;;;;;4.55;100.00;99278.16;5262805;28;20032;-72
2021/12/04 14:18:22;;;;;;;19.70;15.98;;;;;;;4.55;100.00;99274.75;5254103;28;20792;-77
2021/12/04 14:21:00;;;;;;;18.55;16.55;;;;;;;4.52;100.00;99278.25;5237336;28;20060;-78
2021/12/04 14:23:33;;;;;;;22.00;16.25;;;;;;;4.50;100.00;99272.22;5274925;28;20039;-72
2021/12/04 14:26:05;;;;;;;20.65;15.77;;;;;;;4.54;100.00;99278.19;5261477;28;20047;-77
2021/12/04 14:28:39;;;;;;;20.93;16.07;;;;;;;4.53;100.00;99291.97;5257666;28;20107;-78
2021/12/04 14:31:12;;;;;;;19.38;15.75;;;;;;;4.51;100.00;99286.00;5278895;28;20082;-74
2021/12/04 14:33:44;;;;;;;16.58;14.60;;;;;;;4.54;100.00;99296.25;5246293;28;20607;-76
2021/12/04 14:36:20;;;;;;;16.03;12.37;;;;;;;4.50;100.00;99292.88;5256455;28;20036;-77
2021/12/04 14:38:51;;;;;;;17.38;14.25;;;;;;;4.50;100.00;99298.03;5267327;28;20028;-73
2021/12/04 14:41:23;;;;;;;14.37;12.40;;;;;;;4.49;100.00;99309.22;5257644;28;20043;-78
2021/12/04 14:43:54;;;;;;;18.50;14.77;;;;;;;4.49;100.00;99314.41;5266230;28;20575;-70
2021/12/04 14:46:27;;;;;;;13.57;11.27;;;;;;;4.49;100.00;99318.69;5275243;28;20029;-77
2021/12/04 14:49:09;;;;;;;12.20;10.52;;;;;;;4.50;100.00;99318.66;5262460;28;20040;-73
2021/12/04 14:51:41;;;;;;;14.77;10.40;;;;;;;4.49;100.00;99321.25;5254589;28;20029;-73
2021/12/04 14:54:13;;;;;;;17.42;11.43;;;;;;;4.48;100.00;99327.31;5256051;28;20072;-75
2021/12/04 14:56:44;;;;;;;15.90;10.47;;;;;;;4.46;100.00;99337.66;5252386;28;20056;-72
2021/12/04 14:59:16;;;;;;;17.33;10.13;;;;;;;4.45;100.00;99341.09;5270608;28;20040;-74
2021/12/04 15:01:56;;;;;;;15.32;8.77;;;;;;;4.44;100.00;99347.13;5270886;28;20064;-74
2021/12/04 15:04:38;;;;;;;16.25;10.00;;;;;;;4.44;100.00;99359.16;5260829;28;20067;-73
2021/12/04 15:07:22;;;;;;;13.20;8.90;;;;;;;4.43;100.00;99360.91;5253702;28;20021;-78
2021/12/04 15:09:54;;;;;;;10.77;7.07;;;;;;;4.41;100.00;99365.22;5253169;28;20033;-75
2021/12/04 15:12:32;;;;;;;14.77;8.60;;;;;;;4.41;100.00;99362.63;5264097;28;20037;-75
2021/12/04 15:15:07;;;;;;;12.00;8.50;;;;;;;4.38;100.00;99367.84;5247870;28;20454;-72
2021/12/04 15:17:42;;;;;;;11.90;6.25;;;;;;;4.36;100.00;99365.28;5260313;28;20034;-73
2021/12/04 15:20:19;;;;;;;11.75;5.88;;;;;;;4.34;100.00;99367.00;5273625;28;20029;-73
2021/12/04 15:22:54;;;;;;;8.88;5.38;;;;;;;4.35;100.00;99375.63;5263844;28;20136;-74